Terminal Aerodrome Forecast
Issued by NWS Knoxville/Tri Cities, TN

Home | Current Version | Previous Version | Text Only | Print | Product List | Glossary On
Versions: 1 2 3 4 5 6 7 8 9 10 11 12 13 14 15 16 17 18 19 20 21 22 23 24 25 26 27
116
FTUS44 KMRX 242320
TAFTYS
TAF
KTYS 242320Z 2500/2524 22010KT P6SM BKN060 BKN250
     FM250200 21006KT P6SM BKN150
     FM251500 21013G20KT P6SM BKN200
     FM252100 20010KT P6SM BKN200=

USA.gov is the U.S. government's official web portal to all federal, state and local government web resources and services.